sensor_id;sensor_type;location;lat;lon;timestamp;pressure;altitude;pressure_sealevel;temperature;humidity
10587;BME280;5341;47.606;7.576;2023-01-01T00:02:37;99262.59;;;11.98;72.45
10587;BME280;5341;47.606;7.576;2023-01-01T00:05:13;99252.72;;;11.98;72.80
10587;BME280;5341;47.606;7.576;2023-01-01T00:07:54;99252.91;;;11.97;72.37
10587;BME280;5341;47.606;7.576;2023-01-01T00:10:26;99251.25;;;11.96;72.59
10587;BME280;5341;47.606;7.576;2023-01-01T00:13:04;99257.63;;;11.95;72.82
10587;BME280;5341;47.606;7.576;2023-01-01T00:15:35;99252.25;;;11.95;72.91
10587;BME280;5341;47.606;7.576;2023-01-01T00:18:05;99250.41;;;11.95;72.81
10587;BME280;5341;47.606;7.576;2023-01-01T00:20:32;99246.91;;;11.95;72.98
10587;BME280;5341;47.606;7.576;2023-01-01T00:23:03;99241.53;;;11.95;72.72
10587;BME280;5341;47.606;7.576;2023-01-01T00:25:31;99239.69;;;11.95;72.57
10587;BME280;5341;47.606;7.576;2023-01-01T00:27:58;99238.03;;;11.94;72.68
10587;BME280;5341;47.606;7.576;2023-01-01T00:30:26;99231.81;;;11.94;72.56
10587;BME280;5341;47.606;7.576;2023-01-01T00:32:55;99233.50;;;11.95;72.22
10587;BME280;5341;47.606;7.576;2023-01-01T00:35:24;99229.34;;;11.92;72.51
10587;BME280;5341;47.606;7.576;2023-01-01T00:37:52;99230.34;;;11.91;72.70
10587;BME280;5341;47.606;7.576;2023-01-01T00:40:23;99225.00;;;11.91;72.98
10587;BME280;5341;47.606;7.576;2023-01-01T00:42:50;99226.00;;;11.90;72.51
10587;BME280;5341;47.606;7.576;2023-01-01T00:45:20;99215.28;;;11.90;72.32
10587;BME280;5341;47.606;7.576;2023-01-01T00:47:49;99207.44;;;11.89;72.56
10587;BME280;5341;47.606;7.576;2023-01-01T00:50:23;99211.94;;;11.88;72.44
10587;BME280;5341;47.606;7.576;2023-01-01T00:52:55;99213.13;;;11.86;72.48
10587;BME280;5341;47.606;7.576;2023-01-01T00:55:27;99197.03;;;11.86;72.59
10587;BME280;5341;47.606;7.576;2023-01-01T00:57:57;99196.22;;;11.85;72.30
10587;BME280;5341;47.606;7.576;2023-01-01T01:00:28;99211.44;;;11.85;72.76
10587;BME280;5341;47.606;7.576;2023-01-01T01:02:57;99203.59;;;11.83;72.55
10587;BME280;5341;47.606;7.576;2023-01-01T01:05:26;99214.69;;;11.80;72.58
10587;BME280;5341;47.606;7.576;2023-01-01T01:07:53;99225.56;;;11.79;72.27
10587;BME280;5341;47.606;7.576;2023-01-01T01:10:21;99215.84;;;11.78;72.23
10587;BME280;5341;47.606;7.576;2023-01-01T01:12:51;99229.44;;;11.76;72.17
10587;BME280;5341;47.606;7.576;2023-01-01T01:15:19;99223.38;;;11.74;72.31
10587;BME280;5341;47.606;7.576;2023-01-01T01:17:47;99225.25;;;11.73;72.47
10587;BME280;5341;47.606;7.576;2023-01-01T01:20:14;99219.88;;;11.73;72.26
10587;BME280;5341;47.606;7.576;2023-01-01T01:22:44;99238.81;;;11.72;72.22
10587;BME280;5341;47.606;7.576;2023-01-01T01:25:11;99219.41;;;11.70;72.51
10587;BME280;5341;47.606;7.576;2023-01-01T01:27:39;99224.94;;;11.68;72.03
10587;BME280;5341;47.606;7.576;2023-01-01T01:30:07;99236.03;;;11.65;72.36
10587;BME280;5341;47.606;7.576;2023-01-01T01:32:35;99221.97;;;11.63;72.52
10587;BME280;5341;47.606;7.576;2023-01-01T01:35:03;99237.38;;;11.61;72.16
10587;BME280;5341;47.606;7.576;2023-01-01T01:37:31;99230.53;;;11.59;72.27
10587;BME280;5341;47.606;7.576;2023-01-01T01:40:00;99235.88;;;11.59;72.34
10587;BME280;5341;47.606;7.576;2023-01-01T01:42:27;99246.78;;;11.57;72.44
10587;BME280;5341;47.606;7.576;2023-01-01T01:45:04;99265.72;;;11.56;72.30
10587;BME280;5341;47.606;7.576;2023-01-01T01:47:35;99274.75;;;11.55;72.37
10587;BME280;5341;47.606;7.576;2023-01-01T01:50:08;99244.66;;;11.53;72.06
10587;BME280;5341;47.606;7.576;2023-01-01T01:52:40;99245.81;;;11.50;72.06
10587;BME280;5341;47.606;7.576;2023-01-01T01:55:10;99278.78;;;11.51;71.97
10587;BME280;5341;47.606;7.576;2023-01-01T01:57:38;99268.59;;;11.46;71.65
10587;BME280;5341;47.606;7.576;2023-01-01T02:00:08;99269.63;;;11.45;72.11
10587;BME280;5341;47.606;7.576;2023-01-01T02:02:38;99268.97;;;11.43;71.88
10587;BME280;5341;47.606;7.576;2023-01-01T02:05:08;99278.00;;;11.42;71.98
10587;BME280;5341;47.606;7.576;2023-01-01T02:07:36;99265.63;;;11.41;71.80
10587;BME280;5341;47.606;7.576;2023-01-01T02:10:05;99258.44;;;11.41;72.28
10587;BME280;5341;47.606;7.576;2023-01-01T02:12:34;99270.16;;;11.40;71.98
10587;BME280;5341;47.606;7.576;2023-01-01T02:15:02;99280.03;;;11.40;71.77
10587;BME280;5341;47.606;7.576;2023-01-01T02:17:38;99287.06;;;11.41;71.86
10587;BME280;5341;47.606;7.576;2023-01-01T02:20:23;99268.50;;;11.39;71.97
10587;BME280;5341;47.606;7.576;2023-01-01T02:23:21;99272.00;;;11.40;72.31
10587;BME280;5341;47.606;7.576;2023-01-01T02:26:04;99264.28;;;11.37;72.11
10587;BME280;5341;47.606;7.576;2023-01-01T02:28:49;99273.16;;;11.37;71.89
10587;BME280;5341;47.606;7.576;2023-01-01T02:31:23;99260.78;;;11.36;71.86
10587;BME280;5341;47.606;7.576;2023-01-01T02:33:55;99252.09;;;11.34;72.01
10587;BME280;5341;47.606;7.576;2023-01-01T02:36:25;99275.38;;;11.34;72.01
10587;BME280;5341;47.606;7.576;2023-01-01T02:38:56;99253.94;;;11.34;71.86
10587;BME280;5341;47.606;7.576;2023-01-01T02:41:29;99258.47;;;11.33;71.73
10587;BME280;5341;47.606;7.576;2023-01-01T02:43:59;99272.03;;;11.32;71.69
10587;BME280;5341;47.606;7.576;2023-01-01T02:46:30;99259.66;;;11.31;71.96
10587;BME280;5341;47.606;7.576;2023-01-01T02:48:58;99278.41;;;11.31;72.10
10587;BME280;5341;47.606;7.576;2023-01-01T02:51:32;99267.03;;;11.29;72.13
10587;BME280;5341;47.606;7.576;2023-01-01T02:54:07;99278.75;;;11.28;71.63
10587;BME280;5341;47.606;7.576;2023-01-01T02:56:44;99267.22;;;11.27;72.17
10587;BME280;5341;47.606;7.576;2023-01-01T02:59:24;99298.66;;;11.25;71.93
10587;BME280;5341;47.606;7.576;2023-01-01T03:02:16;99278.25;;;11.24;71.57
10587;BME280;5341;47.606;7.576;2023-01-01T03:04:57;99281.94;;;11.23;71.36
10587;BME280;5341;47.606;7.576;2023-01-01T03:07:37;99283.78;;;11.23;71.93
10587;BME280;5341;47.606;7.576;2023-01-01T03:10:12;99265.88;;;11.23;71.97
10587;BME280;5341;47.606;7.576;2023-01-01T03:12:44;99283.59;;;11.24;71.88
10587;BME280;5341;47.606;7.576;2023-01-01T03:15:23;99264.03;;;11.24;71.66
10587;BME280;5341;47.606;7.576;2023-01-01T03:17:58;99257.00;;;11.23;71.67
10587;BME280;5341;47.606;7.576;2023-01-01T03:20:32;99249.16;;;11.21;72.24
10587;BME280;5341;47.606;7.576;2023-01-01T03:23:05;99255.34;;;11.22;72.36
10587;BME280;5341;47.606;7.576;2023-01-01T03:25:35;99265.22;;;11.21;72.24
10587;BME280;5341;47.606;7.576;2023-01-01T03:28:09;99265.22;;;11.21;71.79
10587;BME280;5341;47.606;7.576;2023-01-01T03:30:42;99261.69;;;11.21;72.17
10587;BME280;5341;47.606;7.576;2023-01-01T03:33:15;99268.06;;;11.20;72.05
10587;BME280;5341;47.606;7.576;2023-01-01T03:35:48;99256.53;;;11.19;71.95
10587;BME280;5341;47.606;7.576;2023-01-01T03:38:20;99266.41;;;11.19;72.18
10587;BME280;5341;47.606;7.576;2023-01-01T03:40:53;99253.84;;;11.19;71.50
10587;BME280;5341;47.606;7.576;2023-01-01T03:43:34;99262.72;;;11.20;72.15
10587;BME280;5341;47.606;7.576;2023-01-01T03:46:10;99258.38;;;11.19;71.60
10587;BME280;5341;47.606;7.576;2023-01-01T03:48:39;99246.00;;;11.18;71.70
10587;BME280;5341;47.606;7.576;2023-01-01T03:51:28;99254.03;;;11.18;72.24
10587;BME280;5341;47.606;7.576;2023-01-01T03:54:07;99250.50;;;11.17;71.86
10587;BME280;5341;47.606;7.576;2023-01-01T03:56:42;99266.56;;;11.17;71.80
10587;BME280;5341;47.606;7.576;2023-01-01T03:59:16;99277.47;;;11.15;71.63
10587;BME280;5341;47.606;7.576;2023-01-01T04:01:51;99273.25;;;11.13;72.16
10587;BME280;5341;47.606;7.576;2023-01-01T04:04:25;99277.13;;;11.10;71.88
10587;BME280;5341;47.606;7.576;2023-01-01T04:06:58;99270.28;;;11.08;71.37
10587;BME280;5341;47.606;7.576;2023-01-01T04:09:30;99280.34;;;11.06;71.17
10587;BME280;5341;47.606;7.576;2023-01-01T04:12:01;99281.53;;;11.03;71.63
10587;BME280;5341;47.606;7.576;2023-01-01T04:14:33;99279.00;;;11.02;71.52
10587;BME280;5341;47.606;7.576;2023-01-01T04:17:09;99279.16;;;11.00;71.40
10587;BME280;5341;47.606;7.576;2023-01-01T04:19:38;99287.19;;;11.00;71.74
10587;BME280;5341;47.606;7.576;2023-01-01T04:22:10;99291.72;;;11.00;71.98
10587;BME280;5341;47.606;7.576;2023-01-01T04:24:39;99282.84;;;10.99;71.65
10587;BME280;5341;47.606;7.576;2023-01-01T04:27:08;99289.22;;;10.98;71.71
10587;BME280;5341;47.606;7.576;2023-01-01T04:29:37;99308.97;;;10.97;71.55
10587;BME280;5341;47.606;7.576;2023-01-01T04:32:14;99302.78;;;10.97;71.45
10587;BME280;5341;47.606;7.576;2023-01-01T04:34:45;99294.91;;;10.95;70.94
10587;BME280;5341;47.606;7.576;2023-01-01T04:37:13;99296.75;;;10.95;71.80
10587;BME280;5341;47.606;7.576;2023-01-01T04:39:41;99288.72;;;10.95;71.52
10587;BME280;5341;47.606;7.576;2023-01-01T04:42:09;99296.75;;;10.95;71.04
10587;BME280;5341;47.606;7.576;2023-01-01T04:44:37;99287.06;;;10.94;71.29
10587;BME280;5341;47.606;7.576;2023-01-01T04:47:05;99288.91;;;10.93;71.52
10587;BME280;5341;47.606;7.576;2023-01-01T04:49:36;99279.22;;;10.92;71.31
10587;BME280;5341;47.606;7.576;2023-01-01T04:52:04;99284.75;;;10.91;71.32
10587;BME280;5341;47.606;7.576;2023-01-01T04:54:32;99283.03;;;10.90;71.14
10587;BME280;5341;47.606;7.576;2023-01-01T04:57:00;99274.53;;;10.86;70.68
10587;BME280;5341;47.606;7.576;2023-01-01T04:59:28;99275.38;;;10.86;71.06
10587;BME280;5341;47.606;7.576;2023-01-01T05:01:57;99264.84;;;10.85;70.94
10587;BME280;5341;47.606;7.576;2023-01-01T05:04:25;99263.16;;;10.84;70.86
10587;BME280;5341;47.606;7.576;2023-01-01T05:06:55;99263.34;;;10.82;70.58
10587;BME280;5341;47.606;7.576;2023-01-01T05:09:23;99275.88;;;10.82;71.13
10587;BME280;5341;47.606;7.576;2023-01-01T05:11:50;99263.53;;;10.81;71.19
10587;BME280;5341;47.606;7.576;2023-01-01T05:14:20;99288.59;;;10.80;71.01
10587;BME280;5341;47.606;7.576;2023-01-01T05:16:47;99263.84;;;10.78;71.09
10587;BME280;5341;47.606;7.576;2023-01-01T05:19:15;99287.25;;;10.76;70.79
10587;BME280;5341;47.606;7.576;2023-01-01T05:21:42;99266.03;;;10.74;70.40
10587;BME280;5341;47.606;7.576;2023-01-01T05:24:12;99279.56;;;10.73;71.60
10587;BME280;5341;47.606;7.576;2023-01-01T05:26:42;99269.88;;;10.72;70.76
10587;BME280;5341;47.606;7.576;2023-01-01T05:29:10;99270.06;;;10.70;70.82
10587;BME280;5341;47.606;7.576;2023-01-01T05:31:38;99278.25;;;10.69;70.74
10587;BME280;5341;47.606;7.576;2023-01-01T05:34:09;99276.41;;;10.69;71.03
10587;BME280;5341;47.606;7.576;2023-01-01T05:36:37;99270.25;;;10.69;71.12
10587;BME280;5341;47.606;7.576;2023-01-01T05:39:06;99271.41;;;10.66;70.46
10587;BME280;5341;47.606;7.576;2023-01-01T05:41:41;99273.22;;;10.66;70.49
10587;BME280;5341;47.606;7.576;2023-01-01T05:44:10;99265.19;;;10.66;71.17
10587;BME280;5341;47.606;7.576;2023-01-01T05:46:37;99284.94;;;10.65;71.40
10587;BME280;5341;47.606;7.576;2023-01-01T05:49:10;99265.38;;;10.64;71.46
10587;BME280;5341;47.606;7.576;2023-01-01T05:51:38;99278.94;;;10.63;71.04
10587;BME280;5341;47.606;7.576;2023-01-01T05:54:06;99269.91;;;10.64;70.81
10587;BME280;5341;47.606;7.576;2023-01-01T05:56:35;99277.25;;;10.62;70.85
10587;BME280;5341;47.606;7.576;2023-01-01T05:59:04;99280.94;;;10.61;70.45
10587;BME280;5341;47.606;7.576;2023-01-01T06:01:32;99282.94;;;10.59;70.42
10587;BME280;5341;47.606;7.576;2023-01-01T06:04:06;99276.78;;;10.58;70.61
10587;BME280;5341;47.606;7.576;2023-01-01T06:06:34;99279.44;;;10.58;70.51
10587;BME280;5341;47.606;7.576;2023-01-01T06:09:03;99276.13;;;10.56;70.49
10587;BME280;5341;47.606;7.576;2023-01-01T06:11:32;99283.31;;;10.55;70.67
10587;BME280;5341;47.606;7.576;2023-01-01T06:14:01;99280.81;;;10.54;70.50
10587;BME280;5341;47.606;7.576;2023-01-01T06:16:33;99277.25;;;10.53;70.39
10587;BME280;5341;47.606;7.576;2023-01-01T06:19:01;99287.13;;;10.53;70.42
10587;BME280;5341;47.606;7.576;2023-01-01T06:21:28;99278.44;;;10.51;70.36
10587;BME280;5341;47.606;7.576;2023-01-01T06:23:57;99282.94;;;10.50;70.41
10587;BME280;5341;47.606;7.576;2023-01-01T06:26:27;99295.50;;;10.50;69.96
10587;BME280;5341;47.606;7.576;2023-01-01T06:28:57;99282.28;;;10.48;70.77
10587;BME280;5341;47.606;7.576;2023-01-01T06:31:28;99296.84;;;10.46;70.35
10587;BME280;5341;47.606;7.576;2023-01-01T06:33:58;99296.84;;;10.46;70.06
10587;BME280;5341;47.606;7.576;2023-01-01T06:36:26;99296.19;;;10.44;70.43
10587;BME280;5341;47.606;7.576;2023-01-01T06:38:55;99302.53;;;10.43;70.37
10587;BME280;5341;47.606;7.576;2023-01-01T06:41:26;99321.38;;;10.41;70.42
10587;BME280;5341;47.606;7.576;2023-01-01T06:43:56;99303.84;;;10.39;70.65
10587;BME280;5341;47.606;7.576;2023-01-01T06:46:25;99321.72;;;10.38;70.00
10587;BME280;5341;47.606;7.576;2023-01-01T06:48:55;99322.06;;;10.35;69.87
10587;BME280;5341;47.606;7.576;2023-01-01T06:51:26;99323.06;;;10.34;70.39
10587;BME280;5341;47.606;7.576;2023-01-01T06:53:57;99324.09;;;10.33;70.17
10587;BME280;5341;47.606;7.576;2023-01-01T06:56:25;99329.59;;;10.32;69.89
10587;BME280;5341;47.606;7.576;2023-01-01T06:58:53;99326.09;;;10.31;69.87
10587;BME280;5341;47.606;7.576;2023-01-01T07:01:22;99323.41;;;10.31;70.16
10587;BME280;5341;47.606;7.576;2023-01-01T07:03:52;99333.28;;;10.31;70.11
10587;BME280;5341;47.606;7.576;2023-01-01T07:06:20;99328.06;;;10.29;69.98
10587;BME280;5341;47.606;7.576;2023-01-01T07:08:50;99314.69;;;10.29;70.13
10587;BME280;5341;47.606;7.576;2023-01-01T07:11:18;99314.88;;;10.27;69.28
10587;BME280;5341;47.606;7.576;2023-01-01T07:13:46;99311.72;;;10.24;69.38
10587;BME280;5341;47.606;7.576;2023-01-01T07:16:14;99313.53;;;10.23;70.30
10587;BME280;5341;47.606;7.576;2023-01-01T07:18:41;99323.41;;;10.23;69.77
10587;BME280;5341;47.606;7.576;2023-01-01T07:21:25;99319.91;;;10.22;70.03
10587;BME280;5341;47.606;7.576;2023-01-01T07:23:56;99324.41;;;10.22;70.32
10587;BME280;5341;47.606;7.576;2023-01-01T07:26:24;99323.56;;;10.21;70.20
10587;BME280;5341;47.606;7.576;2023-01-01T07:28:52;99328.91;;;10.21;69.53
10587;BME280;5341;47.606;7.576;2023-01-01T07:31:20;99314.84;;;10.19;69.52
10587;BME280;5341;47.606;7.576;2023-01-01T07:33:48;99323.88;;;10.18;69.71
10587;BME280;5341;47.606;7.576;2023-01-01T07:36:15;99323.88;;;10.18;69.92
10587;BME280;5341;47.606;7.576;2023-01-01T07:38:43;99307.97;;;10.17;69.92
10587;BME280;5341;47.606;7.576;2023-01-01T07:41:14;99317.84;;;10.16;69.43
10587;BME280;5341;47.606;7.576;2023-01-01T07:43:42;99320.50;;;10.16;69.95
10587;BME280;5341;47.606;7.576;2023-01-01T07:46:12;99335.53;;;10.17;70.10
10587;BME280;5341;47.606;7.576;2023-01-01T07:48:41;99332.03;;;10.17;69.54
10587;BME280;5341;47.606;7.576;2023-01-01T07:51:13;99324.03;;;10.17;69.96
10587;BME280;5341;47.606;7.576;2023-01-01T07:53:42;99329.38;;;10.17;69.48
10587;BME280;5341;47.606;7.576;2023-01-01T07:56:14;99326.88;;;10.15;69.65
10587;BME280;5341;47.606;7.576;2023-01-01T07:58:43;99325.84;;;10.16;69.99
10587;BME280;5341;47.606;7.576;2023-01-01T08:01:13;99326.69;;;10.17;69.83
10587;BME280;5341;47.606;7.576;2023-01-01T08:03:42;99337.25;;;10.18;69.31
10587;BME280;5341;47.606;7.576;2023-01-01T08:06:12;99333.56;;;10.19;69.47
10587;BME280;5341;47.606;7.576;2023-01-01T08:08:41;99343.44;;;10.19;69.72
10587;BME280;5341;47.606;7.576;2023-01-01T08:11:08;99332.88;;;10.17;69.77
10587;BME280;5341;47.606;7.576;2023-01-01T08:13:38;99350.59;;;10.18;69.45
10587;BME280;5341;47.606;7.576;2023-01-01T08:16:06;99347.09;;;10.18;69.38
10587;BME280;5341;47.606;7.576;2023-01-01T08:18:34;99355.97;;;10.18;69.47
10587;BME280;5341;47.606;7.576;2023-01-01T08:21:02;99348.78;;;10.19;69.40
10587;BME280;5341;47.606;7.576;2023-01-01T08:23:31;99337.91;;;10.20;69.67
10587;BME280;5341;47.606;7.576;2023-01-01T08:26:00;99352.97;;;10.21;69.28
10587;BME280;5341;47.606;7.576;2023-01-01T08:28:29;99364.34;;;10.23;69.59
10587;BME280;5341;47.606;7.576;2023-01-01T08:30:59;99368.69;;;10.24;69.91
10587;BME280;5341;47.606;7.576;2023-01-01T08:33:33;99369.19;;;10.28;69.68
10587;BME280;5341;47.606;7.576;2023-01-01T08:36:07;99369.19;;;10.28;69.87
10587;BME280;5341;47.606;7.576;2023-01-01T08:38:36;99374.34;;;10.30;69.71
10587;BME280;5341;47.606;7.576;2023-01-01T08:41:05;99371.53;;;10.31;69.67
10587;BME280;5341;47.606;7.576;2023-01-01T08:43:33;99370.38;;;10.34;69.46
10587;BME280;5341;47.606;7.576;2023-01-01T08:46:02;99373.53;;;10.37;69.62
10587;BME280;5341;47.606;7.576;2023-01-01T08:48:30;99379.72;;;10.38;69.97
10587;BME280;5341;47.606;7.576;2023-01-01T08:50:59;99385.72;;;10.40;69.48
10587;BME280;5341;47.606;7.576;2023-01-01T08:53:29;99383.88;;;10.40;69.76
10587;BME280;5341;47.606;7.576;2023-01-01T08:55:58;99373.88;;;10.42;70.02
10587;BME280;5341;47.606;7.576;2023-01-01T08:58:27;99364.88;;;10.43;69.95
10587;BME280;5341;47.606;7.576;2023-01-01T09:00:55;99372.72;;;10.45;70.18
10587;BME280;5341;47.606;7.576;2023-01-01T09:03:26;99375.88;;;10.48;69.87
10587;BME280;5341;47.606;7.576;2023-01-01T09:05:55;99377.38;;;10.51;70.02
10587;BME280;5341;47.606;7.576;2023-01-01T09:08:24;99377.91;;;10.54;70.23
10587;BME280;5341;47.606;7.576;2023-01-01T09:10:52;99375.56;;;10.60;69.92
10587;BME280;5341;47.606;7.576;2023-01-01T09:13:20;99379.38;;;10.65;70.45
10587;BME280;5341;47.606;7.576;2023-01-01T09:15:50;99368.03;;;10.71;70.56
10587;BME280;5341;47.606;7.576;2023-01-01T09:18:17;99363.69;;;10.78;70.39
10587;BME280;5341;47.606;7.576;2023-01-01T09:20:47;99363.66;;;10.86;71.00
10587;BME280;5341;47.606;7.576;2023-01-01T09:23:16;99383.41;;;10.94;70.29
10587;BME280;5341;47.606;7.576;2023-01-01T09:25:43;99372.00;;;11.00;70.33
10587;BME280;5341;47.606;7.576;2023-01-01T09:28:12;99365.97;;;11.06;70.40
10587;BME280;5341;47.606;7.576;2023-01-01T09:30:40;99358.91;;;11.13;70.57
10587;BME280;5341;47.606;7.576;2023-01-01T09:33:09;99359.09;;;11.20;70.77
10587;BME280;5341;47.606;7.576;2023-01-01T09:35:36;99368.25;;;11.25;70.78
10587;BME280;5341;47.606;7.576;2023-01-01T09:38:10;99363.25;;;11.30;70.41
10587;BME280;5341;47.606;7.576;2023-01-01T09:40:47;99367.72;;;11.38;70.02
10587;BME280;5341;47.606;7.576;2023-01-01T09:43:29;99361.03;;;11.42;70.79
10587;BME280;5341;47.606;7.576;2023-01-01T09:46:00;99363.84;;;11.49;70.56
10587;BME280;5341;47.606;7.576;2023-01-01T09:48:30;99365.00;;;11.54;70.21
10587;BME280;5341;47.606;7.576;2023-01-01T09:50:58;99375.00;;;11.60;70.46
10587;BME280;5341;47.606;7.576;2023-01-01T09:53:30;99367.31;;;11.65;70.00
10587;BME280;5341;47.606;7.576;2023-01-01T09:56:00;99360.56;;;11.69;70.06
10587;BME280;5341;47.606;7.576;2023-01-01T09:58:31;99359.19;;;11.73;69.90
10587;BME280;5341;47.606;7.576;2023-01-01T10:01:05;99361.22;;;11.80;69.79
10587;BME280;5341;47.606;7.576;2023-01-01T10:03:41;99365.03;;;11.85;70.15
10587;BME280;5341;47.606;7.576;2023-01-01T10:06:17;99359.00;;;11.91;70.31
10587;BME280;5341;47.606;7.576;2023-01-01T10:09:08;99354.44;;;12.00;70.49
10587;BME280;5341;47.606;7.576;2023-01-01T10:11:48;99347.97;;;12.09;70.69
10587;BME280;5341;47.606;7.576;2023-01-01T10:14:33;99341.75;;;12.17;70.86
10587;BME280;5341;47.606;7.576;2023-01-01T10:17:08;99330.78;;;12.26;71.04
10587;BME280;5341;47.606;7.576;2023-01-01T10:19:42;99324.50;;;12.34;70.06
10587;BME280;5341;47.606;7.576;2023-01-01T10:22:16;99329.16;;;12.40;69.86
10587;BME280;5341;47.606;7.576;2023-01-01T10:24:50;99326.59;;;12.47;70.00
10587;BME280;5341;47.606;7.576;2023-01-01T10:27:27;99328.75;;;12.51;70.00
10587;BME280;5341;47.606;7.576;2023-01-01T10:29:57;99317.66;;;12.54;69.53
10587;BME280;5341;47.606;7.576;2023-01-01T10:32:30;99305.53;;;12.58;69.91
10587;BME280;5341;47.606;7.576;2023-01-01T10:35:00;99300.47;;;12.64;70.07
10587;BME280;5341;47.606;7.576;2023-01-01T10:37:32;99301.56;;;12.69;69.72
10587;BME280;5341;47.606;7.576;2023-01-01T10:40:12;99309.75;;;12.76;69.69
10587;BME280;5341;47.606;7.576;2023-01-01T10:42:41;99319.91;;;12.80;69.89
10587;BME280;5341;47.606;7.576;2023-01-01T10:45:12;99320.75;;;12.81;69.57
10587;BME280;5341;47.606;7.576;2023-01-01T10:48:14;99322.22;;;12.83;69.96
10587;BME280;5341;47.606;7.576;2023-01-01T10:50:44;99313.19;;;12.84;70.32
10587;BME280;5341;47.606;7.576;2023-01-01T10:53:28;99318.38;;;12.86;70.74
10587;BME280;5341;47.606;7.576;2023-01-01T10:56:06;99318.38;;;12.86;70.55
10587;BME280;5341;47.606;7.576;2023-01-01T10:58:38;99307.81;;;12.84;70.53
10587;BME280;5341;47.606;7.576;2023-01-01T11:01:08;99315.69;;;12.86;70.92
10587;BME280;5341;47.606;7.576;2023-01-01T11:03:36;99310.31;;;12.86;71.09
10587;BME280;5341;47.606;7.576;2023-01-01T11:06:12;99307.25;;;12.89;70.90
10587;BME280;5341;47.606;7.576;2023-01-01T11:08:47;99305.03;;;12.93;71.26
10587;BME280;5341;47.606;7.576;2023-01-01T11:11:24;99300.13;;;12.96;71.65
10587;BME280;5341;47.606;7.576;2023-01-01T11:13:55;99305.13;;;12.99;71.53
10587;BME280;5341;47.606;7.576;2023-01-01T11:16:24;99301.88;;;13.04;71.23
10587;BME280;5341;47.606;7.576;2023-01-01T11:19:00;99290.63;;;13.08;71.40
10587;BME280;5341;47.606;7.576;2023-01-01T11:21:29;99288.19;;;13.13;71.62
10587;BME280;5341;47.606;7.576;2023-01-01T11:24:16;99281.09;;;13.21;71.66
10587;BME280;5341;47.606;7.576;2023-01-01T11:26:47;99273.75;;;13.29;72.28
10587;BME280;5341;47.606;7.576;2023-01-01T11:29:25;99274.31;;;13.39;71.64
10587;BME280;5341;47.606;7.576;2023-01-01T11:31:54;99274.41;;;13.46;72.18
10587;BME280;5341;47.606;7.576;2023-01-01T11:34:29;99271.13;;;13.51;71.39
10587;BME280;5341;47.606;7.576;2023-01-01T11:37:16;99267.69;;;13.57;72.48
10587;BME280;5341;47.606;7.576;2023-01-01T11:39:47;99266.09;;;13.62;72.24
10587;BME280;5341;47.606;7.576;2023-01-01T11:42:19;99258.97;;;13.69;71.89
10587;BME280;5341;47.606;7.576;2023-01-01T11:44:49;99252.41;;;13.78;72.72
10587;BME280;5341;47.606;7.576;2023-01-01T11:47:22;99246.31;;;13.85;72.00
10587;BME280;5341;47.606;7.576;2023-01-01T11:49:56;99235.59;;;13.91;72.05
10587;BME280;5341;47.606;7.576;2023-01-01T11:52:36;99226.56;;;13.99;72.38
10587;BME280;5341;47.606;7.576;2023-01-01T11:55:24;99218.38;;;14.07;71.90
10587;BME280;5341;47.606;7.576;2023-01-01T11:57:59;99209.78;;;14.18;72.23
10587;BME280;5341;47.606;7.576;2023-01-01T12:00:33;99196.44;;;14.31;72.36
10587;BME280;5341;47.606;7.576;2023-01-01T12:03:10;99188.66;;;14.43;71.66
10587;BME280;5341;47.606;7.576;2023-01-01T12:05:46;99185.47;;;14.54;71.67
10587;BME280;5341;47.606;7.576;2023-01-01T12:08:22;99188.81;;;14.63;71.53
10587;BME280;5341;47.606;7.576;2023-01-01T12:10:56;99185.13;;;14.71;71.58
10587;BME280;5341;47.606;7.576;2023-01-01T12:13:29;99173.56;;;14.77;71.49
10587;BME280;5341;47.606;7.576;2023-01-01T12:16:08;99161.59;;;14.86;70.93
10587;BME280;5341;47.606;7.576;2023-01-01T12:18:42;99158.97;;;14.92;70.38
10587;BME280;5341;47.606;7.576;2023-01-01T12:21:17;99143.44;;;15.01;69.87
10587;BME280;5341;47.606;7.576;2023-01-01T12:23:48;99140.56;;;15.09;69.56
10587;BME280;5341;47.606;7.576;2023-01-01T12:26:22;99144.50;;;15.13;69.45
10587;BME280;5341;47.606;7.576;2023-01-01T12:32:03;99149.72;;;15.15;69.93
10587;BME280;5341;47.606;7.576;2023-01-01T12:34:37;99147.81;;;15.09;71.31
10587;BME280;5341;47.606;7.576;2023-01-01T12:37:13;99148.00;;;15.01;72.36
10587;BME280;5341;47.606;7.576;2023-01-01T12:40:06;99136.59;;;14.92;73.73
10587;BME280;5341;47.606;7.576;2023-01-01T12:42:46;99144.41;;;14.87;72.77
10587;BME280;5341;47.606;7.576;2023-01-01T12:45:38;99132.41;;;14.89;72.67
10587;BME280;5341;47.606;7.576;2023-01-01T12:51:06;99134.97;;;15.11;71.99
10587;BME280;5341;47.606;7.576;2023-01-01T12:53:48;99132.31;;;15.17;71.39
10587;BME280;5341;47.606;7.576;2023-01-01T12:56:21;99139.78;;;15.22;71.49
10587;BME280;5341;47.606;7.576;2023-01-01T12:58:53;99124.69;;;15.28;71.41
10587;BME280;5341;47.606;7.576;2023-01-01T13:01:24;99123.03;;;15.33;71.09
10587;BME280;5341;47.606;7.576;2023-01-01T13:03:58;99119.72;;;15.38;70.79
10587;BME280;5341;47.606;7.576;2023-01-01T13:06:33;99117.03;;;15.44;70.59
10587;BME280;5341;47.606;7.576;2023-01-01T13:09:09;99109.56;;;15.46;71.17
10587;BME280;5341;47.606;7.576;2023-01-01T13:11:41;99107.91;;;15.45;71.53
10587;BME280;5341;47.606;7.576;2023-01-01T13:14:10;99112.28;;;15.40;73.65
10587;BME280;5341;47.606;7.576;2023-01-01T13:16:39;99109.34;;;15.35;73.69
10587;BME280;5341;47.606;7.576;2023-01-01T13:19:24;99115.34;;;15.30;75.41
10587;BME280;5341;47.606;7.576;2023-01-01T13:21:54;99123.19;;;15.25;75.58
10587;BME280;5341;47.606;7.576;2023-01-01T13:24:23;99114.69;;;15.21;76.75
10587;BME280;5341;47.606;7.576;2023-01-01T13:26:53;99112.44;;;15.18;76.39
10587;BME280;5341;47.606;7.576;2023-01-01T13:29:32;99116.97;;;15.18;76.70
10587;BME280;5341;47.606;7.576;2023-01-01T13:32:05;99110.75;;;15.17;77.10
10587;BME280;5341;47.606;7.576;2023-01-01T13:34:40;99108.28;;;15.16;76.86
10587;BME280;5341;47.606;7.576;2023-01-01T13:40:30;99108.06;;;15.24;77.00
10587;BME280;5341;47.606;7.576;2023-01-01T13:43:13;99099.41;;;15.29;76.76
10587;BME280;5341;47.606;7.576;2023-01-01T13:45:44;99097.13;;;15.32;76.62